Time;durP1;ratioP1;P1;durP2;ratioP2;P2;SDS_P1;SDS_P2;PMS_P1;PMS_P2;Temp;Humidity;BMP_temperature;BMP_pressure;BME280_temperature;BME280_humidity;BME280_pressure;Samples;Min_cycle;Max_cycle;Signal;HPM_P1;HPM_P2
2021/06/01 00:02:10;;;;;;;;;;;16.30;99.90;;;;;;5119480;28;20348;-75
2021/06/01 00:04:35;;;;;;;;;;;16.20;99.90;;;;;;5120538;28;19911;-75
2021/06/01 00:07:01;;;;;;;;;;;16.30;99.90;;;;;;5120456;28;20351;-75
2021/06/01 00:09:26;;;;;;;;;;;16.20;99.80;;;;;;5119687;28;19904;-76
2021/06/01 00:11:52;;;;;;;;;;;16.20;99.90;;;;;;5120489;28;20010;-76
2021/06/01 00:14:17;;;;;;;;;;;16.30;99.80;;;;;;5120886;28;19979;-76
2021/06/01 00:16:44;;;;;;;;;;;16.20;99.40;;;;;;5119473;28;19915;-75
2021/06/01 00:19:09;;;;;;;;;;;16.20;99.60;;;;;;5120347;28;19918;-76
2021/06/01 00:21:35;;;;;;;;;;;16.10;99.40;;;;;;5120449;28;19903;-76
2021/06/01 00:24:01;;;;;;;;;;;16.10;99.30;;;;;;5119434;28;19918;-75
2021/06/01 00:26:27;;;;;;;;;;;16.10;99.40;;;;;;5121112;28;19903;-76
2021/06/01 00:28:52;;;;;;;;;;;16.00;99.40;;;;;;5119768;28;19908;-75
2021/06/01 00:31:18;;;;;;;;;;;16.00;99.40;;;;;;5120171;28;19904;-75
2021/06/01 00:33:43;;;;;;;;;;;16.00;99.30;;;;;;5120210;28;19910;-75
2021/06/01 00:36:09;;;;;;;;;;;15.90;99.20;;;;;;5119339;28;20426;-75
2021/06/01 00:38:35;;;;;;;;;;;15.90;99.30;;;;;;5120207;28;19929;-75
2021/06/01 00:41:01;;;;;;;;;;;15.80;99.30;;;;;;5119803;28;20339;-75
2021/06/01 00:43:26;;;;;;;;;;;15.80;99.30;;;;;;5119110;28;19918;-75
2021/06/01 00:45:52;;;;;;;;;;;15.80;99.40;;;;;;5120077;28;19993;-75
2021/06/01 00:48:17;;;;;;;;;;;15.80;99.40;;;;;;5120144;28;19998;-75
2021/06/01 00:50:43;;;;;;;;;;;15.70;99.50;;;;;;5119378;28;20394;-75
2021/06/01 00:53:08;;;;;;;;;;;15.70;99.50;;;;;;5119974;28;20248;-75
2021/06/01 00:55:34;;;;;;;;;;;15.80;99.30;;;;;;5120307;28;19957;-75
2021/06/01 00:58:00;;;;;;;;;;;15.70;99.30;;;;;;5117772;28;19939;-75
2021/06/01 01:02:54;;;;;;;;;;;15.60;99.30;;;;;;5116789;28;19912;-75
2021/06/01 01:05:21;;;;;;;;;;;15.60;99.40;;;;;;5116146;28;20279;-75
2021/06/01 01:08:02;;;;;;;;;;;15.60;99.40;;;;;;5116811;28;19904;-74
2021/06/01 01:10:27;;;;;;;;;;;15.50;99.60;;;;;;5116721;28;19910;-74
2021/06/01 01:13:00;;;;;;;;;;;15.50;99.70;;;;;;5115420;28;19903;-74
2021/06/01 01:15:26;;;;;;;;;;;15.40;99.70;;;;;;5116142;28;20336;-74
2021/06/01 01:17:52;;;;;;;;;;;15.40;99.70;;;;;;5116393;28;20358;-74
2021/06/01 01:20:23;;;;;;;;;;;15.30;99.80;;;;;;5115608;28;19982;-75
2021/06/01 01:22:51;;;;;;;;;;;15.30;99.80;;;;;;5116284;28;19912;-74
2021/06/01 01:25:24;;;;;;;;;;;15.30;99.70;;;;;;5115548;28;20305;-74
2021/06/01 01:28:10;;;;;;;;;;;15.20;99.70;;;;;;5116321;28;20305;-73
2021/06/01 01:30:44;;;;;;;;;;;15.20;99.70;;;;;;5116317;28;19908;-76
2021/06/01 01:33:10;;;;;;;;;;;15.20;99.80;;;;;;5115419;28;19998;-74
2021/06/01 01:35:37;;;;;;;;;;;15.10;99.90;;;;;;5116003;28;20377;-75
2021/06/01 01:38:03;;;;;;;;;;;15.10;99.90;;;;;;5115865;28;20048;-75
2021/06/01 01:40:30;;;;;;;;;;;15.00;99.90;;;;;;5115242;28;19903;-74
2021/06/01 01:43:02;;;;;;;;;;;15.00;99.90;;;;;;5116136;28;19922;-74
2021/06/01 01:45:31;;;;;;;;;;;15.00;99.90;;;;;;5115704;28;19917;-74
2021/06/01 01:50:49;;;;;;;;;;;14.90;99.90;;;;;;5115999;28;19970;-75
2021/06/01 01:53:18;;;;;;;;;;;14.90;99.90;;;;;;5115205;28;19949;-75
2021/06/01 01:55:46;;;;;;;;;;;14.90;99.90;;;;;;5115707;28;19903;-75
2021/06/01 01:58:12;;;;;;;;;;;14.80;99.90;;;;;;5115745;28;19941;-75
2021/06/01 02:00:38;;;;;;;;;;;14.80;99.90;;;;;;5114917;28;19986;-75
2021/06/01 02:03:04;;;;;;;;;;;14.80;99.90;;;;;;5115573;28;19991;-75
2021/06/01 02:05:29;;;;;;;;;;;14.80;99.90;;;;;;5115723;28;19907;-75
2021/06/01 02:07:55;;;;;;;;;;;14.70;99.90;;;;;;5114988;28;19944;-74
2021/06/01 02:10:20;;;;;;;;;;;14.70;99.90;;;;;;5115350;28;19939;-75
2021/06/01 02:12:46;;;;;;;;;;;14.60;99.90;;;;;;5115279;28;19910;-75
2021/06/01 02:15:12;;;;;;;;;;;14.70;99.90;;;;;;5114641;28;19904;-75
2021/06/01 02:17:38;;;;;;;;;;;14.60;99.90;;;;;;5116505;28;19971;-74
2021/06/01 02:20:07;;;;;;;;;;;14.60;99.90;;;;;;5115494;28;19910;-74
2021/06/01 02:25:14;;;;;;;;;;;14.50;99.90;;;;;;5115580;28;19911;-75
2021/06/01 02:28:12;;;;;;;;;;;14.50;99.90;;;;;;5115312;28;19957;-75
2021/06/01 02:30:49;;;;;;;;;;;14.50;99.90;;;;;;5079812;28;20380;-76
2021/06/01 02:33:17;;;;;;;;;;;14.40;99.90;;;;;;5115321;28;20365;-75
2021/06/01 02:35:42;;;;;;;;;;;14.40;99.90;;;;;;5114220;28;19908;-75
2021/06/01 02:38:09;;;;;;;;;;;14.40;99.90;;;;;;5114888;28;19904;-75
2021/06/01 02:40:35;;;;;;;;;;;14.40;99.90;;;;;;5114960;28;19904;-74
2021/06/01 02:43:03;;;;;;;;;;;14.30;99.90;;;;;;5113746;28;19962;-75
2021/06/01 02:45:30;;;;;;;;;;;14.30;99.90;;;;;;5114788;28;19908;-76
2021/06/01 02:47:56;;;;;;;;;;;14.30;99.90;;;;;;5114644;28;19903;-74
2021/06/01 02:50:22;;;;;;;;;;;14.20;99.90;;;;;;5113922;28;19910;-75
2021/06/01 02:52:48;;;;;;;;;;;14.20;99.90;;;;;;5114521;28;19908;-74
2021/06/01 02:55:15;;;;;;;;;;;14.20;99.90;;;;;;5114835;28;19998;-74
2021/06/01 02:57:41;;;;;;;;;;;14.20;99.90;;;;;;5114128;28;19926;-75
2021/06/01 03:00:08;;;;;;;;;;;14.20;99.90;;;;;;5114833;28;20268;-75
2021/06/01 03:02:33;;;;;;;;;;;14.10;99.90;;;;;;5114482;28;19918;-74
2021/06/01 03:04:59;;;;;;;;;;;14.10;99.90;;;;;;5113694;28;19904;-74
2021/06/01 03:07:24;;;;;;;;;;;14.10;99.90;;;;;;5114205;28;20240;-74
2021/06/01 03:09:50;;;;;;;;;;;14.10;99.90;;;;;;5114338;28;19937;-75
2021/06/01 03:14:53;;;;;;;;;;;14.10;99.90;;;;;;5114217;28;19908;-74
2021/06/01 03:17:18;;;;;;;;;;;14.00;99.90;;;;;;5113870;28;19904;-74
2021/06/01 03:19:44;;;;;;;;;;;14.00;99.90;;;;;;5113335;28;19904;-74
2021/06/01 03:22:10;;;;;;;;;;;14.00;99.90;;;;;;5113136;28;20383;-75
2021/06/01 03:24:35;;;;;;;;;;;14.00;99.90;;;;;;5113917;28;19903;-74
2021/06/01 03:27:02;;;;;;;;;;;14.00;99.90;;;;;;5113278;28;19904;-75
2021/06/01 03:29:28;;;;;;;;;;;14.00;99.90;;;;;;5113840;28;19956;-75
2021/06/01 03:31:53;;;;;;;;;;;13.90;99.90;;;;;;5113289;28;19904;-75
2021/06/01 03:34:19;;;;;;;;;;;13.90;99.90;;;;;;5113938;28;19908;-75
2021/06/01 03:36:44;;;;;;;;;;;13.90;99.90;;;;;;5114023;28;19927;-75
2021/06/01 03:39:10;;;;;;;;;;;13.90;99.90;;;;;;5114555;28;20428;-75
2021/06/01 03:41:36;;;;;;;;;;;14.00;99.90;;;;;;5113680;28;20320;-75
2021/06/01 03:44:01;;;;;;;;;;;13.90;99.90;;;;;;5115597;28;19911;-74
2021/06/01 03:46:27;;;;;;;;;;;13.90;99.90;;;;;;5112826;28;19903;-75
2021/06/01 03:48:52;;;;;;;;;;;13.90;99.90;;;;;;5113611;28;19950;-74
2021/06/01 03:51:18;;;;;;;;;;;13.90;99.90;;;;;;5113511;28;19962;-74
2021/06/01 03:53:44;;;;;;;;;;;13.90;99.90;;;;;;5112742;28;19904;-74
2021/06/01 03:56:10;;;;;;;;;;;13.90;99.90;;;;;;5113468;28;19904;-74
2021/06/01 03:58:35;;;;;;;;;;;13.90;99.90;;;;;;5113480;28;20369;-75
2021/06/01 04:01:01;;;;;;;;;;;13.90;99.90;;;;;;5112615;28;19903;-75
2021/06/01 04:03:26;;;;;;;;;;;13.90;99.90;;;;;;5113296;28;20006;-74
2021/06/01 04:05:52;;;;;;;;;;;13.90;99.90;;;;;;5113368;28;19960;-74
2021/06/01 04:08:17;;;;;;;;;;;13.90;99.90;;;;;;5112372;28;19965;-74
2021/06/01 04:10:43;;;;;;;;;;;13.90;99.90;;;;;;5113233;28;19918;-74
2021/06/01 04:13:08;;;;;;;;;;;13.90;99.90;;;;;;5113281;28;19942;-74
2021/06/01 04:15:34;;;;;;;;;;;13.90;99.90;;;;;;5112382;28;20002;-74
2021/06/01 04:17:59;;;;;;;;;;;13.90;99.90;;;;;;5113357;28;19918;-75
2021/06/01 04:20:25;;;;;;;;;;;14.00;99.90;;;;;;5113849;28;19903;-76
2021/06/01 04:22:50;;;;;;;;;;;14.00;99.90;;;;;;5114328;28;19912;-74
2021/06/01 04:25:16;;;;;;;;;;;14.10;99.90;;;;;;5113174;28;19904;-74
2021/06/01 04:27:42;;;;;;;;;;;14.10;99.90;;;;;;5113122;28;19904;-76
2021/06/01 04:30:08;;;;;;;;;;;14.10;99.90;;;;;;5112856;28;19957;-75
2021/06/01 04:32:33;;;;;;;;;;;14.10;99.90;;;;;;5113455;28;20347;-75
2021/06/01 04:34:58;;;;;;;;;;;14.20;99.90;;;;;;5118915;28;20436;-75
2021/06/01 04:37:24;;;;;;;;;;;14.20;99.90;;;;;;5117996;28;20009;-75
2021/06/01 04:39:49;;;;;;;;;;;14.20;99.90;;;;;;5116884;28;19990;-75
2021/06/01 04:42:18;;;;;;;;;;;14.30;99.90;;;;;;5115839;28;19935;-75
2021/06/01 04:44:43;;;;;;;;;;;14.30;99.90;;;;;;5116925;28;20009;-75
2021/06/01 04:47:09;;;;;;;;;;;14.40;99.90;;;;;;5116803;28;20278;-75
2021/06/01 04:49:37;;;;;;;;;;;14.40;99.90;;;;;;5116116;28;19907;-76
2021/06/01 04:52:03;;;;;;;;;;;14.50;99.90;;;;;;5116880;28;20282;-75
2021/06/01 04:54:29;;;;;;;;;;;14.50;99.90;;;;;;5116664;28;19956;-75
2021/06/01 04:56:54;;;;;;;;;;;14.30;99.90;;;;;;5115989;28;19962;-76
2021/06/01 04:59:19;;;;;;;;;;;15.20;99.90;;;;;;5098370;28;19904;-75
2021/06/01 05:01:45;;;;;;;;;;;14.60;99.90;;;;;;5116538;28;20028;-75
2021/06/01 05:04:11;;;;;;;;;;;14.70;99.90;;;;;;5115581;28;19978;-74
2021/06/01 05:06:36;;;;;;;;;;;14.80;99.90;;;;;;5116351;28;20312;-75
2021/06/01 05:09:04;;;;;;;;;;;14.80;99.90;;;;;;5116331;28;20394;-75
2021/06/01 05:11:30;;;;;;;;;;;14.80;99.90;;;;;;5115632;28;19911;-74
2021/06/01 05:13:55;;;;;;;;;;;14.90;99.90;;;;;;5116401;28;19910;-75
2021/06/01 05:16:21;;;;;;;;;;;14.90;99.90;;;;;;5116471;28;19907;-74
2021/06/01 05:18:46;;;;;;;;;;;15.00;99.90;;;;;;5115685;28;20374;-75
2021/06/01 05:21:12;;;;;;;;;;;15.00;99.90;;;;;;5116048;28;19995;-75
2021/06/01 05:23:37;;;;;;;;;;;15.10;99.90;;;;;;5116487;28;19911;-75
2021/06/01 05:26:03;;;;;;;;;;;15.10;99.90;;;;;;5115683;28;20359;-75
2021/06/01 05:28:31;;;;;;;;;;;15.10;99.90;;;;;;5116254;28;20449;-75
2021/06/01 05:33:35;;;;;;;;;;;15.20;99.90;;;;;;5115288;28;19903;-75
2021/06/01 05:36:01;;;;;;;;;;;15.30;99.90;;;;;;5116491;28;19915;-75
2021/06/01 05:38:27;;;;;;;;;;;15.40;99.90;;;;;;5115041;28;19913;-75
2021/06/01 05:40:53;;;;;;;;;;;15.40;99.90;;;;;;5115452;28;19952;-75
2021/06/01 05:43:19;;;;;;;;;;;15.30;99.90;;;;;;5115987;28;19954;-74
2021/06/01 05:45:46;;;;;;;;;;;15.50;99.90;;;;;;5114475;28;20002;-75
2021/06/01 05:48:11;;;;;;;;;;;15.50;99.90;;;;;;5115816;28;19950;-76
2021/06/01 05:50:38;;;;;;;;;;;15.60;99.90;;;;;;5115618;28;19995;-75
2021/06/01 05:53:04;;;;;;;;;;;15.60;99.90;;;;;;5114913;28;19903;-75
2021/06/01 05:55:29;;;;;;;;;;;15.60;99.90;;;;;;5115416;28;20309;-74
2021/06/01 05:57:55;;;;;;;;;;;15.70;99.90;;;;;;5115541;28;19904;-75
2021/06/01 06:00:21;;;;;;;;;;;15.80;99.90;;;;;;5114714;28;19911;-75
2021/06/01 06:02:47;;;;;;;;;;;15.90;99.90;;;;;;5115418;28;19942;-75
2021/06/01 06:05:12;;;;;;;;;;;16.00;99.90;;;;;;5115424;28;20392;-75
2021/06/01 06:07:39;;;;;;;;;;;16.00;99.90;;;;;;5114483;28;19942;-75
2021/06/01 06:10:05;;;;;;;;;;;16.10;99.90;;;;;;5115436;28;19904;-74
2021/06/01 06:12:30;;;;;;;;;;;16.10;99.90;;;;;;5114972;28;20367;-76
2021/06/01 06:14:56;;;;;;;;;;;17.10;99.90;;;;;;5114611;28;20320;-75
2021/06/01 06:17:40;;;;;;;;;;;16.20;99.90;;;;;;5115180;28;19923;-75
2021/06/01 06:20:06;;;;;;;;;;;16.30;99.90;;;;;;5116614;28;19903;-76
2021/06/01 06:22:32;;;;;;;;;;;16.30;99.90;;;;;;5117759;28;20377;-75
2021/06/01 06:24:58;;;;;;;;;;;16.40;99.90;;;;;;5118604;28;19970;-76
2021/06/01 06:27:27;;;;;;;;;;;16.50;99.90;;;;;;5115448;28;19904;-77
2021/06/01 06:29:52;;;;;;;;;;;16.50;99.90;;;;;;5114540;28;20242;-76
2021/06/01 06:32:18;;;;;;;;;;;16.60;99.90;;;;;;5115508;28;19910;-77
2021/06/01 06:34:43;;;;;;;;;;;16.60;99.90;;;;;;5119650;28;19910;-75
2021/06/01 06:37:09;;;;;;;;;;;16.80;99.90;;;;;;5115779;28;19903;-76
2021/06/01 06:39:35;;;;;;;;;;;16.80;99.90;;;;;;5120720;28;20428;-75
2021/06/01 06:42:00;;;;;;;;;;;16.80;99.90;;;;;;5116079;28;19926;-75
2021/06/01 06:44:26;;;;;;;;;;;16.90;99.90;;;;;;5115697;28;20035;-76
2021/06/01 06:47:04;;;;;;;;;;;16.90;99.90;;;;;;5115086;28;19903;-76
2021/06/01 06:49:31;;;;;;;;;;;16.90;99.90;;;;;;5113959;28;19907;-76
2021/06/01 06:51:57;;;;;;;;;;;17.00;99.90;;;;;;5114282;28;20019;-75
2021/06/01 06:54:22;;;;;;;;;;;17.00;99.90;;;;;;5114742;28;19943;-75
2021/06/01 06:56:47;;;;;;;;;;;17.10;99.90;;;;;;5112969;28;19910;-75
2021/06/01 06:59:13;;;;;;;;;;;17.20;99.90;;;;;;5114553;28;20332;-76
2021/06/01 07:01:38;;;;;;;;;;;17.20;99.90;;;;;;5114504;28;19998;-75
2021/06/01 07:04:04;;;;;;;;;;;17.30;99.90;;;;;;5113387;28;19965;-75
2021/06/01 07:06:29;;;;;;;;;;;17.30;99.90;;;;;;5114505;28;19911;-75
2021/06/01 07:08:55;;;;;;;;;;;17.40;99.90;;;;;;5114371;28;19907;-76
2021/06/01 07:11:20;;;;;;;;;;;17.40;99.90;;;;;;5113549;28;19903;-75
2021/06/01 07:14:00;;;;;;;;;;;17.50;99.90;;;;;;5114288;28;19904;-75
2021/06/01 07:16:26;;;;;;;;;;;17.60;99.90;;;;;;5114371;28;19937;-74
2021/06/01 07:18:51;;;;;;;;;;;17.60;99.90;;;;;;5113255;28;20251;-75
2021/06/01 07:21:17;;;;;;;;;;;17.70;99.90;;;;;;5114211;28;19903;-75
2021/06/01 07:23:43;;;;;;;;;;;17.80;99.90;;;;;;5114211;28;19994;-76
2021/06/01 07:26:10;;;;;;;;;;;17.90;99.90;;;;;;5113364;28;20374;-75
2021/06/01 07:28:36;;;;;;;;;;;18.00;99.90;;;;;;5113953;28;20445;-75
2021/06/01 07:31:03;;;;;;;;;;;18.00;99.90;;;;;;5113205;28;19904;-75
2021/06/01 07:33:28;;;;;;;;;;;18.10;99.90;;;;;;5113912;28;19911;-75
2021/06/01 07:35:53;;;;;;;;;;;18.10;99.90;;;;;;5113901;28;19904;-74
2021/06/01 07:38:19;;;;;;;;;;;18.20;99.90;;;;;;5112999;28;19904;-75
2021/06/01 07:40:45;;;;;;;;;;;18.30;99.90;;;;;;5113610;28;19903;-75
2021/06/01 07:43:10;;;;;;;;;;;18.30;99.90;;;;;;5113497;28;19976;-75
2021/06/01 07:45:36;;;;;;;;;;;18.40;99.90;;;;;;5112667;28;20415;-76
2021/06/01 07:48:01;;;;;;;;;;;18.40;99.90;;;;;;5113833;28;19987;-75
2021/06/01 07:50:27;;;;;;;;;;;18.50;99.90;;;;;;5113776;28;19904;-75
2021/06/01 07:52:53;;;;;;;;;;;18.50;99.90;;;;;;5094570;28;19998;-75
2021/06/01 07:55:18;;;;;;;;;;;18.60;99.90;;;;;;5113692;28;19964;-75
2021/06/01 07:57:44;;;;;;;;;;;18.70;99.90;;;;;;5113749;28;19911;-75
2021/06/01 08:00:11;;;;;;;;;;;18.70;99.90;;;;;;5112859;28;19903;-75
2021/06/01 08:02:36;;;;;;;;;;;18.80;99.80;;;;;;5113598;28;19912;-74
2021/06/01 08:05:02;;;;;;;;;;;18.90;99.50;;;;;;5112886;28;19910;-76
2021/06/01 08:07:28;;;;;;;;;;;19.00;99.70;;;;;;5113107;28;19977;-76
2021/06/01 08:09:53;;;;;;;;;;;19.00;99.70;;;;;;5117910;28;19903;-76
2021/06/01 08:12:19;;;;;;;;;;;19.10;99.70;;;;;;5118183;28;19903;-76
2021/06/01 08:14:44;;;;;;;;;;;19.20;99.10;;;;;;5117189;28;20266;-76
2021/06/01 08:17:11;;;;;;;;;;;19.20;98.70;;;;;;5118190;28;19914;-76
2021/06/01 08:19:40;;;;;;;;;;;19.30;98.00;;;;;;5117529;28;20283;-75
2021/06/01 08:24:34;;;;;;;;;;;19.40;97.60;;;;;;5118112;28;19911;-75
2021/06/01 08:26:59;;;;;;;;;;;19.50;97.50;;;;;;5120378;28;19904;-75
2021/06/01 08:29:25;;;;;;;;;;;19.60;97.00;;;;;;5122347;28;19998;-75
2021/06/01 08:31:51;;;;;;;;;;;19.60;96.70;;;;;;5117708;28;19986;-75
2021/06/01 08:34:16;;;;;;;;;;;19.70;96.20;;;;;;5116853;28;19904;-75
2021/06/01 08:36:42;;;;;;;;;;;19.70;95.40;;;;;;5118157;28;19907;-75
2021/06/01 08:39:08;;;;;;;;;;;19.90;95.20;;;;;;5120348;28;19910;-76
2021/06/01 08:41:34;;;;;;;;;;;19.90;94.60;;;;;;5117580;28;19925;-77
2021/06/01 08:44:02;;;;;;;;;;;20.00;93.90;;;;;;5123022;28;19922;-76
2021/06/01 08:46:28;;;;;;;;;;;20.10;93.80;;;;;;5116992;28;19903;-75
2021/06/01 08:48:54;;;;;;;;;;;20.20;93.80;;;;;;5116349;28;19903;-76
2021/06/01 08:51:20;;;;;;;;;;;20.30;93.40;;;;;;5117008;28;20237;-75
2021/06/01 08:53:50;;;;;;;;;;;20.40;92.50;;;;;;5117051;28;19926;-75
2021/06/01 08:56:16;;;;;;;;;;;20.50;92.30;;;;;;5097547;28;19929;-75
2021/06/01 08:58:42;;;;;;;;;;;20.50;92.10;;;;;;5116602;28;19905;-74
2021/06/01 09:01:08;;;;;;;;;;;20.70;91.30;;;;;;5116608;28;19903;-77
2021/06/01 09:03:35;;;;;;;;;;;20.70;90.70;;;;;;5115449;28;19923;-75
2021/06/01 09:06:13;;;;;;;;;;;20.80;90.30;;;;;;5116629;28;20036;-75
2021/06/01 09:22:28;;;;;;;;;;;21.30;83.40;;;;;;5116050;28;19910;-75
2021/06/01 09:25:02;;;;;;;;;;;21.40;81.80;;;;;;5115516;28;19907;-75
2021/06/01 09:27:30;;;;;;;;;;;21.50;80.80;;;;;;5115947;28;19903;-75
2021/06/01 09:29:56;;;;;;;;;;;21.50;79.30;;;;;;5116067;28;19904;-76
2021/06/01 09:32:22;;;;;;;;;;;21.60;78.40;;;;;;5115388;28;20300;-76
2021/06/01 09:34:53;;;;;;;;;;;21.60;77.60;;;;;;5115880;28;20053;-75
2021/06/01 09:37:29;;;;;;;;;;;21.70;77.10;;;;;;5116175;28;19904;-75
2021/06/01 09:40:12;;;;;;;;;;;21.80;76.60;;;;;;5115778;28;19903;-76
2021/06/01 09:42:39;;;;;;;;;;;21.90;75.90;;;;;;5115611;28;20385;-75
2021/06/01 09:45:08;;;;;;;;;;;21.90;73.50;;;;;;5115068;28;19990;-76
2021/06/01 09:47:48;;;;;;;;;;;22.00;71.50;;;;;;5115672;28;20334;-76
2021/06/01 09:53:14;;;;;;;;;;;22.00;69.80;;;;;;5110633;28;19904;-76
2021/06/01 09:55:42;;;;;;;;;;;22.10;67.80;;;;;;5115572;28;19908;-76
2021/06/01 09:58:14;;;;;;;;;;;22.10;66.90;;;;;;5115232;28;20334;-76
2021/06/01 10:00:41;;;;;;;;;;;22.10;67.80;;;;;;5114294;28;19904;-76
2021/06/01 10:03:12;;;;;;;;;;;22.20;68.20;;;;;;5115155;28;19934;-76
2021/06/01 10:05:39;;;;;;;;;;;22.30;68.00;;;;;;5114441;28;19903;-76
2021/06/01 10:08:10;;;;;;;;;;;22.30;68.10;;;;;;5115009;28;19903;-74
2021/06/01 10:10:43;;;;;;;;;;;22.50;67.80;;;;;;5114907;28;19956;-77
2021/06/01 10:13:09;;;;;;;;;;;22.60;66.80;;;;;;5114174;28;20335;-76
2021/06/01 10:15:36;;;;;;;;;;;22.60;66.90;;;;;;5114810;28;20007;-76
2021/06/01 10:18:04;;;;;;;;;;;22.70;67.10;;;;;;5114869;28;19938;-75
2021/06/01 10:20:31;;;;;;;;;;;22.70;66.40;;;;;;5113851;28;19986;-75
2021/06/01 10:22:57;;;;;;;;;;;22.80;64.90;;;;;;5114473;28;19915;-76
2021/06/01 10:25:23;;;;;;;;;;;22.80;64.50;;;;;;5115758;28;20369;-76
2021/06/01 10:27:50;;;;;;;;;;;22.80;64.40;;;;;;5114253;28;19917;-76
2021/06/01 10:30:17;;;;;;;;;;;22.80;64.40;;;;;;5116166;28;19991;-77
2021/06/01 10:32:44;;;;;;;;;;;22.90;64.70;;;;;;5122178;28;20363;-76
2021/06/01 10:35:13;;;;;;;;;;;22.90;64.90;;;;;;5114790;28;19968;-76
2021/06/01 10:49:39;;;;;;;;;;;23.10;61.50;;;;;;5117746;28;20338;-76
2021/06/01 10:51:56;;;;;;;;;;;23.20;59.70;;;;;;5113638;28;19908;-77
2021/06/01 10:54:40;;;;;;;;;;;23.30;58.20;;;;;;5114032;28;20290;-77
2021/06/01 10:57:06;;;;;;;;;;;23.30;58.50;;;;;;5113592;28;19986;-76
2021/06/01 10:59:48;;;;;;;;;;;23.40;58.30;;;;;;5114298;28;19903;-76
2021/06/01 11:02:14;;;;;;;;;;;23.40;57.70;;;;;;5113586;28;19918;-74
2021/06/01 11:04:58;;;;;;;;;;;23.40;57.50;;;;;;5114292;28;19904;-76
2021/06/01 11:07:38;;;;;;;;;;;23.50;58.00;;;;;;5114038;28;19903;-76
2021/06/01 11:10:04;;;;;;;;;;;23.50;58.00;;;;;;5113060;28;20004;-76
2021/06/01 11:12:35;;;;;;;;;;;23.50;58.40;;;;;;5114004;28;20340;-76
2021/06/01 11:15:18;;;;;;;;;;;23.50;59.20;;;;;;5113893;28;19904;-75
2021/06/01 11:17:44;;;;;;;;;;;23.60;58.90;;;;;;5113202;28;19908;-76
2021/06/01 11:20:13;;;;;;;;;;;23.60;59.60;;;;;;5113623;28;19903;-76
2021/06/01 11:33:23;;;;;;;;;;;23.80;57.30;;;;;;5114112;28;19911;-75
2021/06/01 11:36:02;;;;;;;;;;;24.00;57.60;;;;;;5113854;28;20279;-75
2021/06/01 11:38:35;;;;;;;;;;;24.00;55.80;;;;;;5112857;28;19960;-75
2021/06/01 11:43:45;;;;;;;;;;;24.00;52.20;;;;;;5113644;28;19957;-77
2021/06/01 11:46:24;;;;;;;;;;;24.00;52.40;;;;;;5113232;28;19904;-77
2021/06/01 11:51:27;;;;;;;;;;;24.10;54.60;;;;;;5113082;28;19943;-76
2021/06/01 11:53:52;;;;;;;;;;;24.30;54.80;;;;;;5113657;28;19998;-75
2021/06/01 11:57:23;;;;;;;;;;;24.40;54.30;;;;;;5113463;28;19946;-76
2021/06/01 12:18:09;;;;;;;;;;;24.80;51.50;;;;;;5113128;28;19915;-75
2021/06/01 12:20:35;;;;;;;;;;;24.90;50.70;;;;;;5112313;28;19910;-75
2021/06/01 12:23:01;;;;;;;;;;;24.90;50.50;;;;;;5112883;28;20010;-75
2021/06/01 12:25:26;;;;;;;;;;;25.00;50.10;;;;;;5113231;28;19915;-73
2021/06/01 12:28:06;;;;;;;;;;;25.10;50.30;;;;;;5112356;28;19994;-75
2021/06/01 12:33:16;;;;;;;;;;;25.30;50.50;;;;;;5112791;28;20306;-76
2021/06/01 12:36:42;;;;;;;;;;;25.00;48.80;;;;;;5116633;28;19903;-76
2021/06/01 12:44:08;;;;;;;;;;;25.70;50.00;;;;;;5115800;28;19919;-76
2021/06/01 12:46:56;;;;;;;;;;;25.80;49.90;;;;;;5122606;28;20400;-75
2021/06/01 13:07:26;;;;;;;;;;;26.30;50.10;;;;;;5116691;28;19910;-76
2021/06/01 13:40:03;;;;;;;;;;;27.20;50.20;;;;;;5117805;28;19914;-75
2021/06/01 13:48:10;;;;;;;;;;;27.50;49.80;;;;;;5117864;28;19956;-76
2021/06/01 13:50:55;;;;;;;;;;;27.60;49.40;;;;;;5116623;28;19907;-76
2021/06/01 13:56:11;;;;;;;;;;;27.70;49.10;;;;;;5116305;28;19904;-74
2021/06/01 14:01:11;;;;;;;;;;;27.90;47.70;;;;;;5116616;28;19904;-75
2021/06/01 14:39:41;;;;;;;;;;;29.40;46.30;;;;;;5116026;28;19968;-76
2021/06/01 15:50:23;;;;;;;;;;;31.00;41.10;;;;;;5113115;28;19927;-76
2021/06/01 15:53:16;;;;;;;;;;;30.80;41.00;;;;;;5112635;28;19914;-76
2021/06/01 16:14:44;;;;;;;;;;;31.50;40.80;;;;;;5113940;28;20002;-77
2021/06/01 16:44:18;;;;;;;;;;;32.00;40.00;;;;;;5120289;28;19923;-76
2021/06/01 17:03:11;;;;;;;;;;;32.30;39.10;;;;;;5117142;28;20056;-76
2021/06/01 17:03:36;;;;;;;;;;;32.20;38.70;;;;;;5116816;28;19964;-75
2021/06/01 17:06:04;;;;;;;;;;;32.20;39.10;;;;;;5116510;28;19904;-75
2021/06/01 17:11:19;;;;;;;;;;;32.20;38.90;;;;;;5116067;28;19926;-75
2021/06/01 17:13:54;;;;;;;;;;;32.30;38.90;;;;;;5116237;28;19904;-75
2021/06/01 17:21:53;;;;;;;;;;;32.20;38.50;;;;;;5115997;28;20057;-75
2021/06/01 17:35:00;;;;;;;;;;;32.20;38.60;;;;;;5116396;28;19910;-74
2021/06/01 17:37:26;;;;;;;;;;;32.30;39.30;;;;;;5114897;28;19949;-74
2021/06/01 17:39:52;;;;;;;;;;;32.50;39.00;;;;;;5115064;28;19904;-75
2021/06/01 17:42:19;;;;;;;;;;;32.50;39.00;;;;;;5114860;28;19945;-74
2021/06/01 17:44:46;;;;;;;;;;;32.60;39.70;;;;;;5114678;28;20376;-75
2021/06/01 17:47:16;;;;;;;;;;;32.60;39.40;;;;;;5116564;28;20267;-74
2021/06/01 17:49:44;;;;;;;;;;;32.70;39.30;;;;;;5116403;28;19907;-75
2021/06/01 17:52:09;;;;;;;;;;;32.60;39.80;;;;;;5115598;28;20301;-75
2021/06/01 17:54:35;;;;;;;;;;;32.50;39.90;;;;;;5115769;28;19904;-75
2021/06/01 17:57:01;;;;;;;;;;;32.40;40.30;;;;;;5115148;28;20278;-75
2021/06/01 17:59:27;;;;;;;;;;;32.30;40.10;;;;;;5115790;28;19903;-75
2021/06/01 18:01:53;;;;;;;;;;;32.30;39.80;;;;;;5115595;28;20290;-75
2021/06/01 18:04:19;;;;;;;;;;;32.20;40.20;;;;;;5114970;28;19956;-73
2021/06/01 18:06:53;;;;;;;;;;;32.20;40.00;;;;;;5115202;28;19904;-76
2021/06/01 18:09:38;;;;;;;;;;;32.30;39.90;;;;;;5115186;28;20353;-76
2021/06/01 19:21:21;;;;;;;;;;;27.10;46.60;;;;;;5119615;28;20232;-75
2021/06/01 19:23:44;;;;;;;;;;;25.80;48.90;;;;;;5113502;28;19918;-77
2021/06/01 19:50:26;;;;;;;;;;;24.20;52.90;;;;;;5112791;28;20374;-75
2021/06/01 19:52:54;;;;;;;;;;;24.00;53.20;;;;;;5113508;28;19934;-74
2021/06/01 19:55:21;;;;;;;;;;;23.90;53.50;;;;;;5113463;28;19904;-75
2021/06/01 19:57:48;;;;;;;;;;;23.70;53.50;;;;;;5112511;28;20304;-75
2021/06/01 20:00:14;;;;;;;;;;;23.70;54.00;;;;;;5113112;28;19911;-74
2021/06/01 20:02:39;;;;;;;;;;;23.60;54.30;;;;;;5113075;28;20333;-74
2021/06/01 20:05:09;;;;;;;;;;;23.50;54.40;;;;;;5115688;28;19908;-75
2021/06/01 20:07:34;;;;;;;;;;;23.40;54.70;;;;;;5117249;28;19950;-75
2021/06/01 20:10:00;;;;;;;;;;;23.30;54.50;;;;;;5117058;28;20344;-75
2021/06/01 20:12:26;;;;;;;;;;;23.20;54.80;;;;;;5116335;28;19923;-75
2021/06/01 20:14:52;;;;;;;;;;;23.20;55.10;;;;;;5117486;28;20371;-75
2021/06/01 20:17:31;;;;;;;;;;;23.20;55.10;;;;;;5117507;28;20009;-76
2021/06/01 20:19:58;;;;;;;;;;;23.00;55.10;;;;;;5117644;28;19903;-75
2021/06/01 20:22:25;;;;;;;;;;;22.90;55.30;;;;;;5117429;28;19914;-75
2021/06/01 20:24:51;;;;;;;;;;;22.80;55.40;;;;;;5116754;28;20050;-75
2021/06/01 20:27:19;;;;;;;;;;;22.80;55.50;;;;;;5117361;28;19947;-75
2021/06/01 20:29:46;;;;;;;;;;;22.70;55.50;;;;;;5118065;28;19954;-75
2021/06/01 20:34:56;;;;;;;;;;;22.50;56.00;;;;;;5117532;28;20007;-75
2021/06/01 20:37:22;;;;;;;;;;;22.40;56.50;;;;;;5117170;28;19907;-74
2021/06/01 20:39:47;;;;;;;;;;;22.40;56.80;;;;;;5116408;28;19949;-75
2021/06/01 20:42:13;;;;;;;;;;;22.30;57.00;;;;;;5116955;28;19933;-76
2021/06/01 20:44:38;;;;;;;;;;;22.20;57.20;;;;;;5117046;28;20375;-75
2021/06/01 20:47:06;;;;;;;;;;;22.20;57.40;;;;;;5116022;28;20363;-75
2021/06/01 20:49:32;;;;;;;;;;;22.10;57.30;;;;;;5117174;28;19952;-75
2021/06/01 20:52:00;;;;;;;;;;;22.10;57.40;;;;;;5118910;28;19925;-76
2021/06/01 20:54:28;;;;;;;;;;;22.00;57.30;;;;;;5117194;28;19903;-74
2021/06/01 20:56:55;;;;;;;;;;;21.90;57.40;;;;;;5116617;28;19904;-77
2021/06/01 20:59:23;;;;;;;;;;;21.90;57.60;;;;;;5116832;28;20002;-75
2021/06/01 21:01:49;;;;;;;;;;;21.80;57.80;;;;;;5116358;28;19904;-75
2021/06/01 21:04:17;;;;;;;;;;;21.70;57.70;;;;;;5117290;28;19923;-76
2021/06/01 21:06:43;;;;;;;;;;;21.70;58.00;;;;;;5117001;28;20316;-75
2021/06/01 21:09:09;;;;;;;;;;;21.60;57.90;;;;;;5116552;28;19933;-75
2021/06/01 21:11:34;;;;;;;;;;;21.60;58.00;;;;;;5116761;28;19904;-75
2021/06/01 21:14:00;;;;;;;;;;;21.50;58.20;;;;;;5116204;28;19957;-74
2021/06/01 21:16:25;;;;;;;;;;;21.40;58.50;;;;;;5116075;28;19918;-75
2021/06/01 21:18:51;;;;;;;;;;;21.40;58.70;;;;;;5116728;28;20378;-75
2021/06/01 21:21:17;;;;;;;;;;;21.40;58.80;;;;;;5115536;28;20352;-75
2021/06/01 21:23:42;;;;;;;;;;;21.30;59.00;;;;;;5116261;28;19915;-76
2021/06/01 21:26:08;;;;;;;;;;;21.30;59.10;;;;;;5116344;28;20282;-75